Brushvale, Minnesota
Current Conditions -  °F | °C
As of 7:55 PM on Sunday 21 Dec 2014 (Local Time) from KBWP Reporting Station
Overcast Overcast  
Wind Chill: 25°   Ceiling: 500
Heat Index: 34°   Visibility: 5mi
Dew Point: 32°   Wind: 12mph
Humidity: 93%   Direction: 150°SSE
Pressure: 29.58"   Gusts: NA
Location:  46.3422°N, 96.4653°W
Report Text: KBWP 220155Z AUTO 15010KT 5SM OVC005 01/00 A2958 RMK AO1
Loading
Personal Weather Stations






























Interactive Weather Map New forecast layout! Learn more

10-Day Weather Forecast

Advertisements
Track Severe Weather on mobile